createdAt,value
2023-05-01T00:02:02.022Z,99660.03
2023-05-01T00:04:29.074Z,99661.41
2023-05-01T00:06:55.741Z,99666.09
2023-05-01T00:09:22.436Z,99665.88
2023-05-01T00:11:49.074Z,99664.84
2023-05-01T00:14:15.763Z,99663.22
2023-05-01T00:16:42.847Z,99659.50
2023-05-01T00:19:09.568Z,99648.38
2023-05-01T00:21:36.181Z,99650.31
2023-05-01T00:24:02.854Z,99635.72
2023-05-01T00:26:31.518Z,99639.28
2023-05-01T00:28:58.617Z,99635.88
2023-05-01T00:31:25.973Z,99634.41
2023-05-01T00:33:54.339Z,99628.38
2023-05-01T00:36:20.967Z,99632.28
2023-05-01T00:38:47.877Z,99638.19
2023-05-01T00:41:14.640Z,99631.41
2023-05-01T00:43:41.355Z,99633.00
2023-05-01T00:46:08.640Z,99626.66
2023-05-01T00:48:36.047Z,99619.91
2023-05-01T00:51:05.140Z,99621.81
2023-05-01T00:53:33.610Z,99630.84
2023-05-01T00:56:01.004Z,99626.69
2023-05-01T00:58:28.191Z,99624.69
2023-05-01T01:00:55.484Z,99626.88
2023-05-01T01:03:22.159Z,99634.84
2023-05-01T01:05:53.839Z,99625.44
2023-05-01T01:08:28.137Z,99622.78
2023-05-01T01:11:21.802Z,99632.03
2023-05-01T01:14:06.823Z,99634.56
2023-05-01T01:16:46.652Z,99637.03
2023-05-01T01:19:40.426Z,99640.91
2023-05-01T01:22:11.952Z,99630.63
2023-05-01T01:24:53.946Z,99622.34
2023-05-01T01:27:31.292Z,99621.69
2023-05-01T01:30:22.918Z,99624.72
2023-05-01T01:33:18.244Z,99626.09
2023-05-01T01:35:53.851Z,99635.09
2023-05-01T01:38:23.992Z,99631.16
2023-05-01T01:41:01.304Z,99628.66
2023-05-01T01:43:31.709Z,99629.50
2023-05-01T01:46:02.267Z,99620.69
2023-05-01T01:48:36.440Z,99619.81
2023-05-01T01:51:09.261Z,99620.72
2023-05-01T01:53:37.897Z,99618.88
2023-05-01T01:56:06.352Z,99619.38
2023-05-01T01:58:35.921Z,99611.13
2023-05-01T02:01:03.917Z,99616.25
2023-05-01T02:03:34.054Z,99610.03
2023-05-01T02:06:01.582Z,99610.47
2023-05-01T02:08:30.905Z,99614.97
2023-05-01T02:11:01.844Z,99614.13
2023-05-01T02:13:30.425Z,99610.31
2023-05-01T02:16:03.182Z,99600.88
2023-05-01T02:18:31.251Z,99601.06
2023-05-01T02:21:00.186Z,99590.78
2023-05-01T02:23:31.036Z,99595.22
2023-05-01T02:26:00.915Z,99605.56
2023-05-01T02:28:29.961Z,99594.00
2023-05-01T02:30:57.477Z,99580.94
2023-05-01T02:33:24.193Z,99581.94
2023-05-01T02:35:50.800Z,99583.94
2023-05-01T02:38:18.654Z,99583.31
2023-05-01T02:40:50.681Z,99585.31
2023-05-01T02:43:20.480Z,99584.31
2023-05-01T02:45:48.238Z,99579.09
2023-05-01T02:48:18.906Z,99580.91
2023-05-01T02:50:46.600Z,99586.69
2023-05-01T02:53:13.638Z,99574.13
2023-05-01T02:55:49.056Z,99581.09
2023-05-01T02:58:17.099Z,99578.44
2023-05-01T03:00:44.847Z,99572.41
2023-05-01T03:03:12.262Z,99571.84
2023-05-01T03:05:39.669Z,99573.41
2023-05-01T03:08:06.850Z,99580.09
2023-05-01T03:10:34.377Z,99582.84
2023-05-01T03:13:01.231Z,99584.84
2023-05-01T03:15:27.882Z,99584.75
2023-05-01T03:17:54.585Z,99584.47
2023-05-01T03:20:21.687Z,99579.91
2023-05-01T03:22:48.363Z,99574.31
2023-05-01T03:25:15.513Z,99583.09
2023-05-01T03:27:42.571Z,99576.16
2023-05-01T03:30:10.634Z,99575.50
2023-05-01T03:32:40.673Z,99578.63
2023-05-01T03:35:13.648Z,99582.28
2023-05-01T03:37:40.427Z,99573.94
2023-05-01T03:40:07.942Z,99571.94
2023-05-01T03:43:10.014Z,99576.72
2023-05-01T03:45:37.075Z,99575.16
2023-05-01T03:48:03.958Z,99570.31
2023-05-01T03:50:32.097Z,99565.06
2023-05-01T03:52:59.008Z,99573.53
2023-05-01T03:55:25.666Z,99582.28
2023-05-01T03:57:52.878Z,99582.81
2023-05-01T04:00:20.342Z,99570.38
2023-05-01T04:02:47.636Z,99570.47
2023-05-01T04:05:19.185Z,99577.03
2023-05-01T04:07:50.685Z,99580.78
2023-05-01T04:10:17.653Z,99583.06
2023-05-01T04:12:52.316Z,99570.63
2023-05-01T04:15:19.159Z,99571.88
2023-05-01T04:17:46.228Z,99563.34
2023-05-01T04:20:12.961Z,99562.78
2023-05-01T04:22:40.274Z,99560.41
2023-05-01T04:25:09.042Z,99558.81
2023-05-01T04:27:35.824Z,99566.66
2023-05-01T04:30:02.498Z,99565.97
2023-05-01T04:32:30.976Z,99573.16
2023-05-01T04:34:57.984Z,99572.13
2023-05-01T04:37:24.751Z,99571.06
2023-05-01T04:39:51.432Z,99570.19
2023-05-01T04:42:20.607Z,99570.91
2023-05-01T04:44:47.417Z,99574.72
2023-05-01T04:47:14.674Z,99572.97
2023-05-01T04:49:41.329Z,99571.38
2023-05-01T04:52:08.034Z,99574.13
2023-05-01T04:54:54.953Z,99571.69
2023-05-01T04:57:23.793Z,99574.56
2023-05-01T04:59:50.676Z,99570.91
2023-05-01T05:02:17.400Z,99581.34
2023-05-01T05:04:44.133Z,99571.72
2023-05-01T05:07:10.919Z,99571.13
2023-05-01T05:10:00.776Z,99575.84
2023-05-01T05:12:27.816Z,99576.81
2023-05-01T05:14:54.535Z,99571.63
2023-05-01T05:17:21.425Z,99582.06
2023-05-01T05:19:48.224Z,99575.19
2023-05-01T05:22:15.727Z,99576.34
2023-05-01T05:25:04.473Z,99578.47
2023-05-01T05:27:36.455Z,99574.84
2023-05-01T05:30:07.260Z,99585.09
2023-05-01T05:32:35.482Z,99580.25
2023-05-01T05:35:03.075Z,99573.78
2023-05-01T05:37:29.968Z,99567.47
2023-05-01T05:39:57.081Z,99573.47
2023-05-01T05:42:24.260Z,99577.44
2023-05-01T05:44:51.029Z,99575.44
2023-05-01T05:47:17.731Z,99576.94
2023-05-01T05:49:44.393Z,99572.47
2023-05-01T05:52:11.165Z,99569.38
2023-05-01T05:54:39.022Z,99570.03
2023-05-01T05:57:05.787Z,99570.06
2023-05-01T05:59:33.318Z,99571.53
2023-05-01T06:02:00.476Z,99566.72
2023-05-01T06:04:27.247Z,99568.38
2023-05-01T06:06:54.511Z,99566.84
2023-05-01T06:09:21.620Z,99575.56
2023-05-01T06:11:48.353Z,99572.66
2023-05-01T06:14:16.670Z,99565.28
2023-05-01T06:16:44.152Z,99571.94
2023-05-01T06:19:12.164Z,99572.50
2023-05-01T06:21:39.739Z,99570.84
2023-05-01T06:24:06.697Z,99573.97
2023-05-01T06:26:41.838Z,99568.22
2023-05-01T06:29:08.538Z,99568.69
2023-05-01T06:31:35.406Z,99572.13
2023-05-01T06:34:02.197Z,99576.81
2023-05-01T06:36:34.991Z,99567.97
2023-05-01T06:39:01.980Z,99571.75
2023-05-01T06:41:30.532Z,99572.50
2023-05-01T06:43:58.572Z,99571.59
2023-05-01T06:46:26.544Z,99570.59
2023-05-01T06:48:53.275Z,99567.59
2023-05-01T06:51:20.033Z,99561.28
2023-05-01T06:53:46.709Z,99563.69
2023-05-01T06:56:13.389Z,99557.00
2023-05-01T06:58:40.139Z,99566.56
2023-05-01T07:01:07.945Z,99566.94
2023-05-01T07:03:34.614Z,99566.56
2023-05-01T07:06:01.360Z,99568.19
2023-05-01T07:08:28.340Z,99567.38
2023-05-01T07:10:55.063Z,99568.81
2023-05-01T07:13:21.760Z,99571.22
2023-05-01T07:15:49.154Z,99566.63
2023-05-01T07:18:17.140Z,99553.72
2023-05-01T07:20:43.903Z,99560.47
2023-05-01T07:23:10.608Z,99554.44
2023-05-01T07:25:44.453Z,99560.03
2023-05-01T07:28:11.280Z,99550.59
2023-05-01T07:30:37.934Z,99553.56
2023-05-01T07:33:05.999Z,99549.41
2023-05-01T07:35:33.040Z,99553.06
2023-05-01T07:37:59.754Z,99545.13
2023-05-01T07:40:26.393Z,99551.53
2023-05-01T07:42:54.581Z,99554.88
2023-05-01T07:45:21.459Z,99543.88
2023-05-01T07:47:48.164Z,99543.19
2023-05-01T07:50:14.889Z,99535.94
2023-05-01T07:52:41.552Z,99534.00
2023-05-01T07:55:08.912Z,99528.13
2023-05-01T07:57:36.263Z,99536.34
2023-05-01T08:00:03.181Z,99526.06
2023-05-01T08:02:41.163Z,99533.16
2023-05-01T08:05:08.375Z,99529.69
2023-05-01T08:07:35.079Z,99531.63
2023-05-01T08:10:02.085Z,99533.63
2023-05-01T08:12:29.706Z,99533.38
2023-05-01T08:14:56.367Z,99520.94
2023-05-01T08:17:23.005Z,99526.88
2023-05-01T08:19:50.383Z,99522.53
2023-05-01T08:22:17.058Z,99513.53
2023-05-01T08:24:44.106Z,99517.84
2023-05-01T08:27:10.883Z,99513.78
2023-05-01T08:29:37.534Z,99506.44
2023-05-01T08:32:04.149Z,99512.41
2023-05-01T08:34:31.051Z,99500.22
2023-05-01T08:36:59.570Z,99506.13
2023-05-01T08:39:26.303Z,99500.44
2023-05-01T08:41:53.167Z,99503.44
2023-05-01T08:44:20.791Z,99503.69
2023-05-01T08:47:00.526Z,99503.72
2023-05-01T08:49:27.536Z,99494.44
2023-05-01T08:51:57.037Z,99497.41
2023-05-01T08:54:24.501Z,99494.78
2023-05-01T08:56:51.844Z,99485.50
2023-05-01T08:59:19.551Z,99480.06
2023-05-01T09:01:47.328Z,99491.19
2023-05-01T09:04:14.868Z,99491.44
2023-05-01T09:06:41.795Z,99487.66
2023-05-01T09:09:08.483Z,99483.28
2023-05-01T09:11:36.748Z,99475.59
2023-05-01T09:14:05.670Z,99488.66
2023-05-01T09:16:32.917Z,99475.28
2023-05-01T09:18:59.804Z,99485.00
2023-05-01T09:21:29.255Z,99475.16
2023-05-01T09:23:56.252Z,99482.44
2023-05-01T09:26:23.017Z,99468.44
2023-05-01T09:28:51.783Z,99475.63
2023-05-01T09:31:22.944Z,99459.56
2023-05-01T09:33:55.061Z,99456.09
2023-05-01T09:36:23.106Z,99469.56
2023-05-01T09:38:49.830Z,99470.69
2023-05-01T09:41:16.883Z,99456.28
2023-05-01T09:43:50.426Z,99463.13
2023-05-01T09:46:17.385Z,99472.09
2023-05-01T09:48:55.185Z,99462.97
2023-05-01T09:51:22.645Z,99461.19
2023-05-01T09:53:49.969Z,99454.63
2023-05-01T09:56:17.415Z,99449.97
2023-05-01T09:58:44.584Z,99447.78
2023-05-01T10:01:11.464Z,99454.56
2023-05-01T10:03:38.431Z,99455.75
2023-05-01T10:06:05.630Z,99443.78
2023-05-01T10:08:45.994Z,99443.91
2023-05-01T10:11:12.817Z,99439.13
2023-05-01T10:13:39.557Z,99443.31
2023-05-01T10:16:08.650Z,99430.56
2023-05-01T10:18:35.970Z,99438.78
2023-05-01T10:21:04.192Z,99433.66
2023-05-01T10:23:31.137Z,99432.81
2023-05-01T10:25:59.439Z,99429.09
2023-05-01T10:28:28.860Z,99428.22
2023-05-01T10:30:56.383Z,99421.00
2023-05-01T10:33:23.547Z,99436.97
2023-05-01T10:35:56.853Z,99419.38
2023-05-01T10:38:27.123Z,99433.38
2023-05-01T10:40:53.795Z,99428.28
2023-05-01T10:43:25.794Z,99428.44
2023-05-01T10:45:53.705Z,99412.28
2023-05-01T10:48:39.142Z,99409.63
2023-05-01T10:51:27.812Z,99412.16
2023-05-01T10:54:13.929Z,99405.06
2023-05-01T10:56:43.105Z,99410.66
2023-05-01T10:59:10.605Z,99403.00
2023-05-01T11:01:37.771Z,99405.81
2023-05-01T11:04:24.591Z,99410.00
2023-05-01T11:07:10.938Z,99398.06
2023-05-01T11:09:41.335Z,99393.88
2023-05-01T11:12:09.497Z,99390.78
2023-05-01T11:14:54.621Z,99379.69
2023-05-01T11:17:39.939Z,99380.63
2023-05-01T11:20:11.432Z,99377.69
2023-05-01T11:22:42.811Z,99377.00
2023-05-01T11:25:27.432Z,99372.00
2023-05-01T11:27:56.706Z,99371.41
2023-05-01T11:30:23.358Z,99370.31
2023-05-01T11:32:51.132Z,99360.56
2023-05-01T11:35:19.061Z,99371.13
2023-05-01T11:37:46.250Z,99359.84
2023-05-01T11:40:45.396Z,99364.97
2023-05-01T11:43:12.784Z,99365.56
2023-05-01T11:45:41.482Z,99363.97
2023-05-01T11:48:16.478Z,99367.50
2023-05-01T11:50:43.325Z,99356.44
2023-05-01T11:53:16.003Z,99363.69
2023-05-01T11:55:42.953Z,99354.06
2023-05-01T11:58:09.591Z,99356.81
2023-05-01T12:00:38.149Z,99348.03
2023-05-01T12:03:06.861Z,99337.00
2023-05-01T12:05:38.188Z,99337.56
2023-05-01T12:08:20.581Z,99334.44
2023-05-01T12:10:50.469Z,99337.94
2023-05-01T12:13:17.195Z,99345.03
2023-05-01T12:15:46.175Z,99327.75
2023-05-01T12:18:13.980Z,99328.06
2023-05-01T12:20:46.264Z,99324.13
2023-05-01T12:23:16.226Z,99321.91
2023-05-01T12:25:43.937Z,99316.91
2023-05-01T12:28:14.268Z,99307.50
2023-05-01T12:30:42.144Z,99313.56
2023-05-01T12:33:19.292Z,99308.28
2023-05-01T12:35:47.850Z,99308.91
2023-05-01T12:38:22.384Z,99308.44
2023-05-01T12:40:53.941Z,99306.25
2023-05-01T12:43:31.468Z,99304.75
2023-05-01T12:45:58.754Z,99296.00
2023-05-01T12:48:25.805Z,99300.03
2023-05-01T12:50:55.592Z,99299.53
2023-05-01T12:53:23.646Z,99295.69
2023-05-01T12:55:52.193Z,99288.91
2023-05-01T12:58:19.260Z,99289.53
2023-05-01T13:00:49.905Z,99283.47
2023-05-01T13:03:23.468Z,99276.78
2023-05-01T13:05:58.318Z,99265.94
2023-05-01T13:08:27.266Z,99274.75
2023-05-01T13:10:57.081Z,99272.53
2023-05-01T13:13:29.467Z,99253.41
2023-05-01T13:16:06.211Z,99262.94
2023-05-01T13:18:33.924Z,99253.38
2023-05-01T13:21:08.764Z,99258.41
2023-05-01T13:23:39.517Z,99250.03
2023-05-01T13:26:07.604Z,99247.41
2023-05-01T13:28:35.648Z,99249.34
2023-05-01T13:31:02.585Z,99246.31
2023-05-01T13:33:31.423Z,99239.34
2023-05-01T13:35:58.260Z,99243.59
2023-05-01T13:38:25.273Z,99239.72
2023-05-01T13:40:51.903Z,99224.91
2023-05-01T13:43:18.632Z,99219.09
2023-05-01T13:45:47.329Z,99217.84
2023-05-01T13:48:17.108Z,99221.09
2023-05-01T13:50:43.810Z,99216.28
2023-05-01T13:53:10.457Z,99218.31
2023-05-01T13:55:40.124Z,99201.22
2023-05-01T13:58:07.287Z,99203.41
2023-05-01T14:00:34.270Z,99201.13
2023-05-01T14:03:01.092Z,99195.59
2023-05-01T14:05:30.655Z,99196.06
2023-05-01T14:07:58.904Z,99193.34
2023-05-01T14:10:29.872Z,99190.78
2023-05-01T14:12:58.777Z,99196.44
2023-05-01T14:15:25.692Z,99183.41
2023-05-01T14:17:53.043Z,99184.19
2023-05-01T14:20:19.936Z,99179.38
2023-05-01T14:22:53.591Z,99168.94
2023-05-01T14:25:31.610Z,99172.66
2023-05-01T14:27:59.390Z,99171.72
2023-05-01T14:30:40.212Z,99169.78
2023-05-01T14:33:14.120Z,99166.75
2023-05-01T14:35:51.527Z,99163.84
2023-05-01T14:38:19.622Z,99164.00
2023-05-01T14:40:46.511Z,99154.59
2023-05-01T14:43:15.080Z,99162.81
2023-05-01T14:45:45.404Z,99163.63
2023-05-01T14:48:23.181Z,99159.41
2023-05-01T14:50:51.021Z,99163.91
2023-05-01T14:53:17.742Z,99153.63
2023-05-01T14:55:44.548Z,99159.03
2023-05-01T14:58:11.205Z,99153.16
2023-05-01T15:00:37.877Z,99154.28
2023-05-01T15:03:04.638Z,99146.59
2023-05-01T15:05:31.456Z,99159.50
2023-05-01T15:08:00.435Z,99154.81
2023-05-01T15:10:27.080Z,99161.28
2023-05-01T15:12:53.747Z,99152.13
2023-05-01T15:15:20.688Z,99157.75
2023-05-01T15:17:47.373Z,99153.19
2023-05-01T15:20:14.067Z,99153.81
2023-05-01T15:22:41.125Z,99148.41
2023-05-01T15:25:09.937Z,99147.75
2023-05-01T15:27:36.626Z,99156.53
2023-05-01T15:30:05.267Z,99141.69
2023-05-01T15:32:32.191Z,99149.28
2023-05-01T15:34:59.190Z,99145.97
2023-05-01T15:37:26.129Z,99138.16
2023-05-01T15:39:52.852Z,99146.88
2023-05-01T15:42:19.934Z,99146.88
2023-05-01T15:44:47.736Z,99143.66
2023-05-01T15:47:14.893Z,99145.66
2023-05-01T15:49:41.608Z,99140.03
2023-05-01T15:52:08.354Z,99133.06
2023-05-01T15:54:35.324Z,99138.78
2023-05-01T15:57:03.217Z,99136.72
2023-05-01T15:59:30.607Z,99130.41
2023-05-01T16:01:57.539Z,99124.59
2023-05-01T16:04:24.168Z,99131.78
2023-05-01T16:06:51.311Z,99124.94
2023-05-01T16:09:18.998Z,99126.72
2023-05-01T16:11:45.657Z,99131.19
2023-05-01T16:14:12.765Z,99123.00
2023-05-01T16:16:41.847Z,99126.84
2023-05-01T16:19:08.716Z,99132.63
2023-05-01T16:21:36.888Z,99130.59
2023-05-01T16:24:03.837Z,99122.94
2023-05-01T16:26:31.495Z,99121.94
2023-05-01T16:29:05.349Z,99122.25
2023-05-01T16:31:38.947Z,99119.00
2023-05-01T16:34:07.186Z,99119.78
2023-05-01T16:36:42.996Z,99129.13
2023-05-01T16:39:14.605Z,99124.38
2023-05-01T16:41:48.528Z,99122.13
2023-05-01T16:44:16.622Z,99122.53
2023-05-01T16:46:45.590Z,99127.84
2023-05-01T16:49:13.704Z,99130.66
2023-05-01T16:51:43.809Z,99123.47
2023-05-01T16:54:10.851Z,99135.59
2023-05-01T16:56:38.416Z,99138.72
2023-05-01T16:59:05.097Z,99126.41
2023-05-01T17:01:31.762Z,99140.47
2023-05-01T17:03:58.572Z,99135.72
2023-05-01T17:06:25.368Z,99134.78
2023-05-01T17:08:52.249Z,99136.22
2023-05-01T17:11:19.093Z,99136.84
2023-05-01T17:13:45.822Z,99129.00
2023-05-01T17:16:12.547Z,99128.59
2023-05-01T17:18:39.227Z,99137.69
2023-05-01T17:21:06.803Z,99133.47
2023-05-01T17:23:33.452Z,99134.69
2023-05-01T17:26:00.593Z,99133.59
2023-05-01T17:28:27.317Z,99133.91
2023-05-01T17:30:54.124Z,99131.88
2023-05-01T17:33:21.149Z,99133.63
2023-05-01T17:35:48.248Z,99138.59
2023-05-01T17:38:14.889Z,99136.41
2023-05-01T17:40:41.578Z,99127.84
2023-05-01T17:43:08.222Z,99136.53
2023-05-01T17:45:34.841Z,99132.53
2023-05-01T17:48:01.779Z,99135.91
2023-05-01T17:50:28.402Z,99131.38
2023-05-01T17:52:55.062Z,99130.03
2023-05-01T17:55:21.815Z,99129.78
2023-05-01T17:57:48.558Z,99127.19
2023-05-01T18:00:16.320Z,99124.81
2023-05-01T18:02:44.881Z,99121.56
2023-05-01T18:05:12.390Z,99131.91
2023-05-01T18:07:39.052Z,99137.31
2023-05-01T18:10:06.303Z,99130.59
2023-05-01T18:12:33.350Z,99133.88
2023-05-01T18:14:59.972Z,99126.28
2023-05-01T18:17:26.833Z,99131.75
2023-05-01T18:19:53.478Z,99128.50
2023-05-01T18:22:20.270Z,99135.81
2023-05-01T18:24:47.056Z,99139.59
2023-05-01T18:27:14.459Z,99142.03
2023-05-01T18:29:41.126Z,99139.06
2023-05-01T18:32:09.366Z,99149.09
2023-05-01T18:34:36.699Z,99153.16
2023-05-01T18:37:03.341Z,99146.38
2023-05-01T18:39:30.299Z,99144.22
2023-05-01T18:41:56.872Z,99153.41
2023-05-01T18:44:23.570Z,99146.38
2023-05-01T18:46:50.246Z,99154.78
2023-05-01T18:49:21.058Z,99157.19
2023-05-01T18:51:48.641Z,99168.00
2023-05-01T18:54:16.135Z,99156.34
2023-05-01T18:56:43.062Z,99156.88
2023-05-01T18:59:09.660Z,99158.78
2023-05-01T19:01:37.089Z,99163.94
2023-05-01T19:04:03.818Z,99167.16
2023-05-01T19:06:31.368Z,99160.66
2023-05-01T19:08:58.400Z,99158.50
2023-05-01T19:11:30.272Z,99156.34
2023-05-01T19:13:57.077Z,99154.69
2023-05-01T19:16:24.715Z,99167.66
2023-05-01T19:18:51.888Z,99168.19
2023-05-01T19:21:18.556Z,99172.00
2023-05-01T19:23:46.567Z,99170.34
2023-05-01T19:26:13.797Z,99177.91
2023-05-01T19:28:43.459Z,99182.97
2023-05-01T19:31:12.429Z,99178.66
2023-05-01T19:33:41.221Z,99187.84
2023-05-01T19:36:07.811Z,99190.81
2023-05-01T19:38:34.555Z,99188.91
2023-05-01T19:41:01.367Z,99192.66
2023-05-01T19:43:28.017Z,99199.16
2023-05-01T19:45:54.782Z,99199.41
2023-05-01T19:48:22.028Z,99201.00
2023-05-01T19:50:51.100Z,99207.44
2023-05-01T19:53:18.389Z,99204.75
2023-05-01T19:55:47.183Z,99203.38
2023-05-01T19:58:15.118Z,99204.63
2023-05-01T20:00:42.033Z,99201.91
2023-05-01T20:03:09.800Z,99206.97
2023-05-01T20:05:37.317Z,99203.88
2023-05-01T20:08:05.094Z,99209.81
2023-05-01T20:10:31.800Z,99212.16
2023-05-01T20:12:58.523Z,99213.16
2023-05-01T20:15:25.849Z,99218.78
2023-05-01T20:17:52.843Z,99227.38
2023-05-01T20:20:20.100Z,99228.16
2023-05-01T20:22:47.056Z,99229.16
2023-05-01T20:25:13.847Z,99222.63
2023-05-01T20:27:41.222Z,99221.84
2023-05-01T20:30:12.743Z,99224.19
2023-05-01T20:32:44.255Z,99221.50
2023-05-01T20:35:11.644Z,99220.69
2023-05-01T20:37:38.361Z,99212.88
2023-05-01T20:40:06.421Z,99223.66
2023-05-01T20:42:33.097Z,99218.22
2023-05-01T20:44:59.751Z,99217.09
2023-05-01T20:47:27.463Z,99219.53
2023-05-01T20:49:54.620Z,99224.84
2023-05-01T20:52:21.441Z,99221.44
2023-05-01T20:54:48.075Z,99230.22
2023-05-01T20:57:16.516Z,99219.38
2023-05-01T20:59:49.999Z,99227.63
2023-05-01T21:02:17.430Z,99229.50
2023-05-01T21:04:46.212Z,99224.94
2023-05-01T21:07:12.934Z,99225.94
2023-05-01T21:09:48.975Z,99229.41
2023-05-01T21:12:15.756Z,99221.59
2023-05-01T21:14:42.437Z,99232.84
2023-05-01T21:17:09.479Z,99234.41
2023-05-01T21:19:46.721Z,99235.47
2023-05-01T21:22:18.668Z,99239.00
2023-05-01T21:24:45.573Z,99236.00
2023-05-01T21:27:12.429Z,99243.47
2023-05-01T21:29:40.817Z,99240.72
2023-05-01T21:32:08.127Z,99252.72
2023-05-01T21:34:35.007Z,99249.47
2023-05-01T21:37:01.666Z,99252.84
2023-05-01T21:39:28.427Z,99246.25
2023-05-01T21:41:55.167Z,99248.06
2023-05-01T21:44:22.776Z,99256.66
2023-05-01T21:46:50.947Z,99242.59
2023-05-01T21:49:23.060Z,99252.66
2023-05-01T21:51:49.921Z,99257.97
2023-05-01T21:54:16.705Z,99263.19
2023-05-01T21:56:43.536Z,99257.00
2023-05-01T21:59:10.329Z,99257.88
2023-05-01T22:01:38.673Z,99254.97
2023-05-01T22:04:07.107Z,99254.69
2023-05-01T22:06:34.051Z,99258.84
2023-05-01T22:09:00.842Z,99249.00
2023-05-01T22:11:28.078Z,99256.22
2023-05-01T22:13:54.791Z,99247.75
2023-05-01T22:16:21.523Z,99256.88
2023-05-01T22:18:49.751Z,99255.72
2023-05-01T22:21:16.911Z,99256.78
2023-05-01T22:23:43.554Z,99266.28
2023-05-01T22:26:10.460Z,99271.75
2023-05-01T22:28:37.147Z,99265.97
2023-05-01T22:31:03.901Z,99265.28
2023-05-01T22:33:30.661Z,99270.66
2023-05-01T22:35:57.390Z,99265.19
2023-05-01T22:38:24.048Z,99270.56
2023-05-01T22:40:50.709Z,99266.13
2023-05-01T22:43:17.414Z,99275.59
2023-05-01T22:45:44.082Z,99271.19
2023-05-01T22:48:10.883Z,99269.31
2023-05-01T22:50:37.585Z,99266.06
2023-05-01T22:53:04.284Z,99265.47
2023-05-01T22:55:31.106Z,99267.13
2023-05-01T22:57:57.769Z,99264.16
2023-05-01T23:00:24.571Z,99264.75
2023-05-01T23:02:51.520Z,99263.94
2023-05-01T23:05:18.457Z,99266.97
2023-05-01T23:07:45.188Z,99267.31
2023-05-01T23:10:12.469Z,99264.47
2023-05-01T23:12:43.806Z,99263.50
2023-05-01T23:15:17.001Z,99256.28
2023-05-01T23:17:44.237Z,99261.97
2023-05-01T23:20:13.451Z,99253.91
2023-05-01T23:22:40.626Z,99261.38
2023-05-01T23:25:07.833Z,99259.59
2023-05-01T23:27:36.177Z,99248.13
2023-05-01T23:32:32.469Z,99239.94
2023-05-01T23:35:10.152Z,99250.44
2023-05-01T23:37:36.876Z,99240.25
2023-05-01T23:40:04.333Z,99242.94
2023-05-01T23:42:31.517Z,99246.22
2023-05-01T23:44:58.200Z,99240.84
2023-05-01T23:47:25.029Z,99237.56
2023-05-01T23:49:52.035Z,99242.63
2023-05-01T23:52:18.751Z,99246.94
2023-05-01T23:54:45.392Z,99244.81
2023-05-01T23:57:12.146Z,99244.47
2023-05-01T23:59:38.836Z,99236.31
